Maximos A — TCA3531 — position and weather

sailwx.info

Track history (hours):
 
Tides and Currents Weather Stations Pressure Air Temp Water Temp Dewpoint Dewpoint Depression Visibility Wind Speed Wind Dir Waves Ship Positions

Maximos A

Last reported at 2018-Feb-21 01:17 UTC. Time now 2018-Feb-21 01:55 UTC.
Position N 36°11' W 004°49'.

Length 207 m; draft 8 m.

Type: Ship. MMSI: 271044166.

Date/timePositionNaut miles runAvg speedWind from/ knotsBaromVisibWave heightAir tempDewpointWater temp
2018-Feb-21 01:17N 36°11' W 004°49'0 0.5
2018-Feb-21 01:00N 36°11' W 004°49'1 0.6
2018-Feb-20 23:14N 36°11' W 004°50'0 0.9
2018-Feb-20 23:00N 36°11' W 004°50'0 0.8
2018-Feb-20 22:25N 36°11' W 004°51'0 0.9
2018-Feb-20 21:56N 36°11' W 004°51'0 0.9
2018-Feb-20 21:29N 36°11' W 004°52'1 0.9
2018-Feb-20 20:55N 36°11' W 004°53'0 1.0
2018-Feb-20 20:30N 36°11' W 004°53'1 1.2
2018-Feb-20 20:00N 36°11' W 004°54'1 1.1
2018-Feb-20 19:26N 36°10' W 004°54'0 0.9
2018-Feb-20 19:00N 36°10' W 004°55'9 0.8
2018-Feb-20 06:45N 36°09' W 005°06'4 0.5
2018-Feb-19 23:09N 36°11' W 005°02'0 0.7
2018-Feb-19 22:53N 36°11' W 005°02'  
2018-Feb-17 00:19N 36°51' E 013°33'613.9
2018-Feb-16 23:53N 36°50' E 013°40'714.5
2018-Feb-16 23:23N 36°48' E 013°49'614.6
2018-Feb-16 23:00N 36°47' E 013°56'714.5
2018-Feb-16 22:30N 36°45' E 014°05'714.6
2018-Feb-16 22:00N 36°43' E 014°13'714.4
2018-Feb-16 21:30N 36°41' E 014°22'714.0
2018-Feb-16 21:00N 36°40' E 014°31'713.8
2018-Feb-16 20:30N 36°38' E 014°39'714.1
2018-Feb-16 20:00N 36°37' E 014°48'714.0
2018-Feb-16 19:30N 36°35' E 014°56'814.3
2018-Feb-16 18:58N 36°34' E 015°06'6414.2
2018-Feb-16 14:25N 37°25' E 015°54'1114.1
2018-Feb-16 13:41N 37°34' E 016°01'313.7
2018-Feb-16 13:29N 37°37' E 016°03'613.7
2018-Feb-16 13:00N 37°42' E 016°07'11014.7
2018-Feb-16 05:33N 39°11' E 017°28'215.3
2018-Feb-16 05:27N 39°13' E 017°29'915.1
2018-Feb-16 04:52N 39°21' E 017°32'513.7
2018-Feb-16 04:28N 39°24' E 017°38'1014.0
2018-Feb-16 03:46N 39°28' E 017°49'3514.4
2018-Feb-16 01:21N 39°46' E 018°28'515.2
2018-Feb-16 01:00N 39°49' E 018°33'714.9
2018-Feb-16 00:30N 39°54' E 018°41'813.9
2018-Feb-15 23:55N 39°58' E 018°50'513.0
2018-Feb-15 23:30N 39°57' E 018°57'28710.6
2018-Feb-14 20:26N 37°05' E 023°52'32610.9
2018-Feb-13 14:32N 40°55' E 028°49'412.6
2018-Feb-13 14:12N 40°56' E 028°54'211.4
2018-Feb-13 14:00N 40°58' E 028°57'1 0.2
2018-Feb-13 10:43N 40°58' E 028°56'0 0.0
2018-Feb-13 10:25N 40°58' E 028°56'0 0.0
2018-Feb-13 09:49N 40°58' E 028°56'0 0.0
2018-Feb-13 09:25N 40°58' E 028°56'0 0.0
2018-Feb-13 07:43N 40°58' E 028°56'0 0.0
2018-Feb-13 05:07N 40°58' E 028°56'0 0.0
2018-Feb-13 03:07N 40°58' E 028°56'0 0.0
2018-Feb-13 02:55N 40°58' E 028°56'0 0.0
2018-Feb-13 01:31N 40°58' E 028°56'0 0.0
2018-Feb-13 01:19N 40°58' E 028°56'0 0.0
2018-Feb-13 00:55N 40°58' E 028°56'0 0.0
2018-Feb-12 23:01N 40°58' E 028°56'0 0.0
2018-Feb-12 22:43N 40°58' E 028°56'0 0.0
2018-Feb-12 22:19N 40°58' E 028°56'0 0.0
2018-Feb-12 21:55N 40°58' E 028°56'0 0.0
2018-Feb-12 21:07N 40°58' E 028°56'0 0.1
2018-Feb-12 20:55N 40°58' E 028°56'0 0.0
2018-Feb-12 17:49N 40°58' E 028°56'0 0.0
2018-Feb-12 17:25N 40°58' E 028°56'0 0.1
2018-Feb-12 16:49N 40°58' E 028°56'2 4.0
2018-Feb-12 16:22N 40°56' E 028°57'4 9.6
2018-Feb-12 15:54N 40°53' E 029°01'410.2
2018-Feb-12 15:30N 40°49' E 029°02'611.1
2018-Feb-12 15:00N 40°46' E 029°08'612.5
2018-Feb-12 14:30N 40°43' E 029°16'4 4.8
2018-Feb-12 13:42N 40°41' E 029°20'0 0.1
2018-Feb-12 13:30N 40°41' E 029°20'0 0.0
2018-Feb-12 13:00N 40°41' E 029°20'0 0.1
2018-Feb-12 12:18N 40°41' E 029°20'0 0.1
2018-Feb-12 11:48N 40°41' E 029°20'0 0.0
2018-Feb-12 11:24N 40°41' E 029°20'0 0.0
2018-Feb-12 10:48N 40°41' E 029°20'0 0.0
2018-Feb-12 10:18N 40°41' E 029°20'0 0.1
2018-Feb-12 09:54N 40°41' E 029°20'0 0.2
2018-Feb-12 09:13N 40°42' E 029°20'1 4.9
2018-Feb-12 08:59N 40°43' E 029°20'5 9.6
2018-Feb-12 08:30N 40°42' E 029°26'1 1.7
2018-Feb-12 07:57N 40°42' E 029°27'0 0.0
2018-Feb-12 07:27N 40°42' E 029°27'0 0.0
2018-Feb-12 06:57N 40°42' E 029°27'0 0.0
2018-Feb-12 06:15N 40°42' E 029°27'0 0.0
2018-Feb-12 05:51N 40°42' E 029°27'0 0.0
2018-Feb-12 05:27N 40°42' E 029°27'0 0.0
2018-Feb-12 04:57N 40°42' E 029°27'0 0.0
2018-Feb-12 04:27N 40°42' E 029°27'0 0.0
2018-Feb-12 03:57N 40°42' E 029°27'0 0.0
2018-Feb-12 03:09N 40°42' E 029°27'0 0.0
2018-Feb-12 02:57N 40°42' E 029°27'0 0.0
2018-Feb-12 02:27N 40°42' E 029°27'0 0.0
2018-Feb-12 01:57N 40°42' E 029°27'0 0.0
2018-Feb-12 01:09N 40°42' E 029°27'0 0.0
2018-Feb-12 00:57N 40°42' E 029°27'0 0.0
2018-Feb-12 00:27N 40°42' E 029°27'0 0.0
2018-Feb-11 23:57N 40°42' E 029°27'0 0.0
2018-Feb-11 23:27N 40°42' E 029°27'0 0.0
2018-Feb-11 22:57N 40°42' E 029°27'0 0.0
2018-Feb-11 22:27N 40°42' E 029°27'0 0.0
2018-Feb-11 21:57N 40°42' E 029°27'0 0.0
2018-Feb-11 21:27N 40°42' E 029°27'0 0.0
2018-Feb-11 20:51N 40°42' E 029°27'0 0.0
2018-Feb-11 20:21N 40°42' E 029°27'0 0.0
2018-Feb-11 19:57N 40°42' E 029°27'0 0.0
2018-Feb-11 19:27N 40°42' E 029°27'0 0.0
2018-Feb-11 18:57N 40°42' E 029°27'0 0.0
2018-Feb-11 18:27N 40°42' E 029°27'0 0.0
2018-Feb-11 17:57N 40°42' E 029°27'0 0.0
2018-Feb-11 17:27N 40°42' E 029°27'0 0.0
2018-Feb-11 16:57N 40°42' E 029°27'0 0.0
2018-Feb-11 16:27N 40°42' E 029°27'0 0.0
2018-Feb-11 15:57N 40°42' E 029°27'0 0.0
2018-Feb-11 15:27N 40°42' E 029°27'0 0.0
2018-Feb-11 13:39N 40°42' E 029°27'0 0.0
2018-Feb-11 13:27N 40°42' E 029°27'0 0.0
2018-Feb-11 12:51N 40°42' E 029°27'0 0.0
2018-Feb-11 12:27N 40°42' E 029°27'0 0.0
2018-Feb-11 11:57N 40°42' E 029°27'0 0.0
2018-Feb-11 11:15N 40°42' E 029°27'0 0.0
2018-Feb-11 10:51N 40°42' E 029°27'0 0.0
2018-Feb-11 10:27N 40°42' E 029°27'0 0.0
2018-Feb-11 09:57N 40°42' E 029°27'0 0.0
2018-Feb-11 09:27N 40°42' E 029°27'0 0.0
2018-Feb-11 08:51N 40°42' E 029°27'0 0.1
2018-Feb-11 08:27N 40°42' E 029°27'0 0.0
2018-Feb-11 07:57N 40°42' E 029°27'0 0.0
2018-Feb-11 07:27N 40°42' E 029°27'0 0.0
2018-Feb-11 06:39N 40°42' E 029°27'0 0.0
2018-Feb-11 06:27N 40°42' E 029°27'0 0.0
2018-Feb-11 05:51N 40°42' E 029°27'0 0.0
2018-Feb-11 05:21N 40°42' E 029°27'0 0.0
2018-Feb-11 04:57N 40°42' E 029°27'0 0.0
2018-Feb-11 04:21N 40°42' E 029°27'0 0.0
2018-Feb-11 03:51N 40°42' E 029°27'0 0.0
2018-Feb-11 03:15N 40°42' E 029°27'0 0.0
2018-Feb-11 02:33N 40°42' E 029°27'0 0.0
2018-Feb-11 02:15N 40°42' E 029°27'0 0.0
2018-Feb-11 01:45N 40°42' E 029°27'  
Track history (hours):
 
Tides and Currents Weather Stations Pressure Air Temp Water Temp Dewpoint Dewpoint Depression Visibility Wind Speed Wind Dir Waves Ship Positions

Maximos A

Last reported at 2018-Feb-21 01:17 UTC. Time now 2018-Feb-21 01:55 UTC.
Position N 36°11' W 004°49'.

Length 207 m; draft 8 m.

Type: Ship. MMSI: 271044166.

Date/timePositionNaut miles runAvg speedWind from/ knotsBaromVisibWave heightAir tempDewpointWater temp
2018-Feb-21 01:17N 36°11' W 004°49'0 0.5
2018-Feb-21 01:00N 36°11' W 004°49'1 0.6
2018-Feb-20 23:14N 36°11' W 004°50'0 0.9
2018-Feb-20 23:00N 36°11' W 004°50'0 0.8
2018-Feb-20 22:25N 36°11' W 004°51'0 0.9
2018-Feb-20 21:56N 36°11' W 004°51'0 0.9
2018-Feb-20 21:29N 36°11' W 004°52'1 0.9
2018-Feb-20 20:55N 36°11' W 004°53'0 1.0
2018-Feb-20 20:30N 36°11' W 004°53'1 1.2
2018-Feb-20 20:00N 36°11' W 004°54'1 1.1
2018-Feb-20 19:26N 36°10' W 004°54'0 0.9
2018-Feb-20 19:00N 36°10' W 004°55'9 0.8
2018-Feb-20 06:45N 36°09' W 005°06'4 0.5
2018-Feb-19 23:09N 36°11' W 005°02'0 0.7
2018-Feb-19 22:53N 36°11' W 005°02'  
2018-Feb-17 00:19N 36°51' E 013°33'613.9
2018-Feb-16 23:53N 36°50' E 013°40'714.5
2018-Feb-16 23:23N 36°48' E 013°49'614.6
2018-Feb-16 23:00N 36°47' E 013°56'714.5
2018-Feb-16 22:30N 36°45' E 014°05'714.6
2018-Feb-16 22:00N 36°43' E 014°13'714.4
2018-Feb-16 21:30N 36°41' E 014°22'714.0
2018-Feb-16 21:00N 36°40' E 014°31'713.8
2018-Feb-16 20:30N 36°38' E 014°39'714.1
2018-Feb-16 20:00N 36°37' E 014°48'714.0
2018-Feb-16 19:30N 36°35' E 014°56'814.3
2018-Feb-16 18:58N 36°34' E 015°06'6414.2
2018-Feb-16 14:25N 37°25' E 015°54'1114.1
2018-Feb-16 13:41N 37°34' E 016°01'313.7
2018-Feb-16 13:29N 37°37' E 016°03'613.7
2018-Feb-16 13:00N 37°42' E 016°07'11014.7
2018-Feb-16 05:33N 39°11' E 017°28'215.3
2018-Feb-16 05:27N 39°13' E 017°29'915.1
2018-Feb-16 04:52N 39°21' E 017°32'513.7
2018-Feb-16 04:28N 39°24' E 017°38'1014.0
2018-Feb-16 03:46N 39°28' E 017°49'3514.4
2018-Feb-16 01:21N 39°46' E 018°28'515.2
2018-Feb-16 01:00N 39°49' E 018°33'714.9
2018-Feb-16 00:30N 39°54' E 018°41'813.9
2018-Feb-15 23:55N 39°58' E 018°50'513.0
2018-Feb-15 23:30N 39°57' E 018°57'28710.6
2018-Feb-14 20:26N 37°05' E 023°52'32610.9
2018-Feb-13 14:32N 40°55' E 028°49'412.6
2018-Feb-13 14:12N 40°56' E 028°54'211.4
2018-Feb-13 14:00N 40°58' E 028°57'1 0.2
2018-Feb-13 10:43N 40°58' E 028°56'0 0.0
2018-Feb-13 10:25N 40°58' E 028°56'0 0.0
2018-Feb-13 09:49N 40°58' E 028°56'0 0.0
2018-Feb-13 09:25N 40°58' E 028°56'0 0.0
2018-Feb-13 07:43N 40°58' E 028°56'0 0.0
2018-Feb-13 05:07N 40°58' E 028°56'0 0.0
2018-Feb-13 03:07N 40°58' E 028°56'0 0.0
2018-Feb-13 02:55N 40°58' E 028°56'0 0.0
2018-Feb-13 01:31N 40°58' E 028°56'0 0.0
2018-Feb-13 01:19N 40°58' E 028°56'0 0.0
2018-Feb-13 00:55N 40°58' E 028°56'0 0.0
2018-Feb-12 23:01N 40°58' E 028°56'0 0.0
2018-Feb-12 22:43N 40°58' E 028°56'0 0.0
2018-Feb-12 22:19N 40°58' E 028°56'0 0.0
2018-Feb-12 21:55N 40°58' E 028°56'0 0.0
2018-Feb-12 21:07N 40°58' E 028°56'0 0.1
2018-Feb-12 20:55N 40°58' E 028°56'0 0.0
2018-Feb-12 17:49N 40°58' E 028°56'0 0.0
2018-Feb-12 17:25N 40°58' E 028°56'0 0.1
2018-Feb-12 16:49N 40°58' E 028°56'2 4.0
2018-Feb-12 16:22N 40°56' E 028°57'4 9.6
2018-Feb-12 15:54N 40°53' E 029°01'410.2
2018-Feb-12 15:30N 40°49' E 029°02'611.1
2018-Feb-12 15:00N 40°46' E 029°08'612.5
2018-Feb-12 14:30N 40°43' E 029°16'4 4.8
2018-Feb-12 13:42N 40°41' E 029°20'0 0.1
2018-Feb-12 13:30N 40°41' E 029°20'0 0.0
2018-Feb-12 13:00N 40°41' E 029°20'0 0.1
2018-Feb-12 12:18N 40°41' E 029°20'0 0.1
2018-Feb-12 11:48N 40°41' E 029°20'0 0.0
2018-Feb-12 11:24N 40°41' E 029°20'0 0.0
2018-Feb-12 10:48N 40°41' E 029°20'0 0.0
2018-Feb-12 10:18N 40°41' E 029°20'0 0.1
2018-Feb-12 09:54N 40°41' E 029°20'0 0.2
2018-Feb-12 09:13N 40°42' E 029°20'1 4.9
2018-Feb-12 08:59N 40°43' E 029°20'5 9.6
2018-Feb-12 08:30N 40°42' E 029°26'1 1.7
2018-Feb-12 07:57N 40°42' E 029°27'0 0.0
2018-Feb-12 07:27N 40°42' E 029°27'0 0.0
2018-Feb-12 06:57N 40°42' E 029°27'0 0.0
2018-Feb-12 06:15N 40°42' E 029°27'0 0.0
2018-Feb-12 05:51N 40°42' E 029°27'0 0.0
2018-Feb-12 05:27N 40°42' E 029°27'0 0.0
2018-Feb-12 04:57N 40°42' E 029°27'0 0.0
2018-Feb-12 04:27N 40°42' E 029°27'0 0.0
2018-Feb-12 03:57N 40°42' E 029°27'0 0.0
2018-Feb-12 03:09N 40°42' E 029°27'0 0.0
2018-Feb-12 02:57N 40°42' E 029°27'0 0.0
2018-Feb-12 02:27N 40°42' E 029°27'0 0.0
2018-Feb-12 01:57N 40°42' E 029°27'0 0.0
2018-Feb-12 01:09N 40°42' E 029°27'0 0.0
2018-Feb-12 00:57N 40°42' E 029°27'0 0.0
2018-Feb-12 00:27N 40°42' E 029°27'0 0.0
2018-Feb-11 23:57N 40°42' E 029°27'0 0.0
2018-Feb-11 23:27N 40°42' E 029°27'0 0.0
2018-Feb-11 22:57N 40°42' E 029°27'0 0.0
2018-Feb-11 22:27N 40°42' E 029°27'0 0.0
2018-Feb-11 21:57N 40°42' E 029°27'0 0.0
2018-Feb-11 21:27N 40°42' E 029°27'0 0.0
2018-Feb-11 20:51N 40°42' E 029°27'0 0.0
2018-Feb-11 20:21N 40°42' E 029°27'0 0.0
2018-Feb-11 19:57N 40°42' E 029°27'0 0.0
2018-Feb-11 19:27N 40°42' E 029°27'0 0.0
2018-Feb-11 18:57N 40°42' E 029°27'0 0.0
2018-Feb-11 18:27N 40°42' E 029°27'0 0.0
2018-Feb-11 17:57N 40°42' E 029°27'0 0.0
2018-Feb-11 17:27N 40°42' E 029°27'0 0.0
2018-Feb-11 16:57N 40°42' E 029°27'0 0.0
2018-Feb-11 16:27N 40°42' E 029°27'0 0.0
2018-Feb-11 15:57N 40°42' E 029°27'0 0.0
2018-Feb-11 15:27N 40°42' E 029°27'0 0.0
2018-Feb-11 13:39N 40°42' E 029°27'0 0.0
2018-Feb-11 13:27N 40°42' E 029°27'0 0.0
2018-Feb-11 12:51N 40°42' E 029°27'0 0.0
2018-Feb-11 12:27N 40°42' E 029°27'0 0.0
2018-Feb-11 11:57N 40°42' E 029°27'0 0.0
2018-Feb-11 11:15N 40°42' E 029°27'0 0.0
2018-Feb-11 10:51N 40°42' E 029°27'0 0.0
2018-Feb-11 10:27N 40°42' E 029°27'0 0.0
2018-Feb-11 09:57N 40°42' E 029°27'0 0.0
2018-Feb-11 09:27N 40°42' E 029°27'0 0.0
2018-Feb-11 08:51N 40°42' E 029°27'0 0.1
2018-Feb-11 08:27N 40°42' E 029°27'0 0.0
2018-Feb-11 07:57N 40°42' E 029°27'0 0.0
2018-Feb-11 07:27N 40°42' E 029°27'0 0.0
2018-Feb-11 06:39N 40°42' E 029°27'0 0.0
2018-Feb-11 06:27N 40°42' E 029°27'0 0.0
2018-Feb-11 05:51N 40°42' E 029°27'0 0.0
2018-Feb-11 05:21N 40°42' E 029°27'0 0.0
2018-Feb-11 04:57N 40°42' E 029°27'0 0.0
2018-Feb-11 04:21N 40°42' E 029°27'0 0.0
2018-Feb-11 03:51N 40°42' E 029°27'0 0.0
2018-Feb-11 03:15N 40°42' E 029°27'0 0.0
2018-Feb-11 02:33N 40°42' E 029°27'0 0.0
2018-Feb-11 02:15N 40°42' E 029°27'0 0.0
2018-Feb-11 01:45N 40°42' E 029°27'  

Dump ship's entire track history